Time;durP1;ratioP1;P1;durP2;ratioP2;P2;SDS_P1;SDS_P2;PMS_P1;PMS_P2;Temp;Humidity;BMP_temperature;BMP_pressure;BME280_temperature;BME280_humidity;BME280_pressure;Samples;Min_cycle;Max_cycle;Signal;HPM_P1;HPM_P2
2022/05/08 00:01:38;;;;;;;5.03;3.20;;;26.60;99.90;;;;;;4150454;28;20049;-71
2022/05/08 00:03:46;;;;;;;6.75;3.10;;;26.60;99.90;;;;;;4147169;28;20054;-71
2022/05/08 00:05:50;;;;;;;3.72;2.85;;;26.60;99.90;;;;;;4146258;28;20048;-69
2022/05/08 00:07:58;;;;;;;3.33;2.70;;;26.60;99.90;;;;;;4146898;28;20046;-71
2022/05/08 00:10:05;;;;;;;3.72;2.53;;;26.50;99.90;;;;;;4146672;28;20062;-69
2022/05/08 00:12:14;;;;;;;6.88;2.58;;;26.60;99.90;;;;;;4146365;28;20446;-68
2022/05/08 00:14:19;;;;;;;5.25;3.03;;;26.60;99.90;;;;;;4142985;28;20499;-68
2022/05/08 00:16:23;;;;;;;3.70;2.63;;;26.60;99.90;;;;;;4150726;28;20038;-72
2022/05/08 00:18:28;;;;;;;4.22;2.78;;;26.50;99.90;;;;;;4145659;28;20040;-70
2022/05/08 00:20:35;;;;;;;3.92;2.60;;;26.60;99.90;;;;;;4147008;28;20104;-68
2022/05/08 00:22:45;;;;;;;3.50;2.60;;;26.60;99.90;;;;;;4145666;28;20066;-69
2022/05/08 00:24:50;;;;;;;4.68;3.00;;;26.80;99.90;;;;;;4144684;28;20088;-68
2022/05/08 00:26:56;;;;;;;3.08;2.55;;;26.80;99.90;;;;;;4145101;28;20049;-68
2022/05/08 00:29:03;;;;;;;4.95;2.97;;;26.90;99.90;;;;;;4144796;28;20269;-69
2022/05/08 00:31:10;;;;;;;4.18;2.42;;;26.90;99.90;;;;;;4143923;28;20095;-68
2022/05/08 00:33:17;;;;;;;4.32;2.72;;;27.00;99.90;;;;;;4144975;28;20045;-67
2022/05/08 00:35:22;;;;;;;6.10;3.15;;;26.90;99.90;;;;;;4145765;28;20050;-68
2022/05/08 00:37:26;;;;;;;4.22;2.70;;;27.00;99.90;;;;;;4147466;28;20045;-68
2022/05/08 00:39:35;;;;;;;3.30;3.00;;;27.20;99.90;;;;;;4147259;28;20042;-69
2022/05/08 00:41:43;;;;;;;6.93;3.28;;;27.20;99.90;;;;;;4161886;28;20046;-68
2022/05/08 00:43:48;;;;;;;4.72;3.00;;;27.10;99.90;;;;;;4148308;28;22286;-68
2022/05/08 00:45:53;;;;;;;5.70;3.70;;;26.90;99.90;;;;;;4144887;28;20073;-67
2022/05/08 00:48:01;;;;;;;10.48;4.32;;;27.10;99.90;;;;;;4147776;28;20048;-68
2022/05/08 00:50:07;;;;;;;8.15;3.53;;;27.10;99.90;;;;;;4145341;28;20088;-68
2022/05/08 00:52:13;;;;;;;5.85;3.35;;;27.20;99.90;;;;;;4148528;28;20132;-70
2022/05/08 00:54:20;;;;;;;4.78;3.50;;;27.20;99.90;;;;;;4150694;28;20116;-68
2022/05/08 00:56:24;;;;;;;5.43;3.28;;;27.20;99.90;;;;;;4146043;28;20045;-68
2022/05/08 00:58:32;;;;;;;4.57;3.25;;;27.40;99.90;;;;;;4146058;28;20056;-68
2022/05/08 01:00:39;;;;;;;4.75;3.20;;;27.40;99.90;;;;;;4148446;28;20123;-68
2022/05/08 01:02:44;;;;;;;10.48;3.40;;;27.40;99.90;;;;;;4147669;28;20607;-68
2022/05/08 01:04:51;;;;;;;4.30;3.10;;;27.40;99.90;;;;;;4162731;28;20119;-68
2022/05/08 01:06:58;;;;;;;4.28;3.25;;;27.40;99.90;;;;;;4146944;28;20049;-69
2022/05/08 01:09:04;;;;;;;4.05;3.25;;;27.40;99.90;;;;;;4147708;28;20050;-69
2022/05/08 01:11:11;;;;;;;3.78;3.13;;;27.40;99.90;;;;;;4149195;28;20045;-68
2022/05/08 01:13:19;;;;;;;9.35;3.63;;;27.50;99.90;;;;;;4149034;28;20057;-69
2022/05/08 01:15:24;;;;;;;4.15;2.95;;;27.40;99.90;;;;;;4146916;28;20045;-69
2022/05/08 01:17:30;;;;;;;3.45;2.90;;;27.30;99.90;;;;;;4147025;28;20057;-69
2022/05/08 01:19:35;;;;;;;5.28;2.70;;;27.20;99.90;;;;;;4147373;28;20038;-68
2022/05/08 01:21:41;;;;;;;4.43;2.60;;;27.30;99.90;;;;;;4147565;28;20556;-68
2022/05/08 01:23:48;;;;;;;4.70;2.70;;;27.40;99.90;;;;;;4147251;28;20042;-69
2022/05/08 01:25:55;;;;;;;5.45;3.13;;;27.20;99.90;;;;;;4145890;28;20136;-69
2022/05/08 01:28:03;;;;;;;5.50;2.95;;;27.30;99.90;;;;;;4147441;28;20046;-69
2022/05/08 01:30:10;;;;;;;4.45;3.00;;;27.50;99.90;;;;;;4133810;28;20104;-70
2022/05/08 01:32:16;;;;;;;5.60;3.20;;;27.60;99.90;;;;;;4164283;28;20076;-68
2022/05/08 01:34:21;;;;;;;4.35;2.80;;;27.70;99.90;;;;;;4165891;28;20051;-70
2022/05/08 01:36:28;;;;;;;4.70;3.00;;;27.80;99.90;;;;;;4148802;28;20743;-70
2022/05/08 01:38:35;;;;;;;4.35;3.08;;;27.90;99.90;;;;;;4150928;28;20049;-69
2022/05/08 01:40:41;;;;;;;4.55;2.50;;;28.00;99.90;;;;;;4150424;28;20166;-69
2022/05/08 01:42:48;;;;;;;4.95;3.00;;;28.10;99.90;;;;;;4150727;28;20042;-69
2022/05/08 01:44:53;;;;;;;3.47;2.70;;;28.20;99.90;;;;;;4152636;28;20044;-70
2022/05/08 01:49:18;;;;;;;4.55;2.88;;;28.30;99.90;;;;;;4152418;28;20058;-68
2022/05/08 01:51:25;;;;;;;2.55;2.35;;;28.20;99.90;;;;;;4152113;28;20551;-68
2022/05/08 01:53:32;;;;;;;3.20;2.72;;;28.20;99.90;;;;;;4152700;28;20049;-69
2022/05/08 01:55:39;;;;;;;4.60;2.85;;;28.00;99.90;;;;;;4152611;28;20049;-69
2022/05/08 01:57:46;;;;;;;5.10;3.15;;;28.10;99.90;;;;;;4118623;28;20042;-68
2022/05/08 01:59:51;;;;;;;4.13;3.08;;;28.20;99.90;;;;;;4170619;28;20112;-68
2022/05/08 02:01:58;;;;;;;4.72;3.20;;;28.30;99.90;;;;;;4152834;28;20049;-68
2022/05/08 02:04:06;;;;;;;4.10;3.10;;;28.40;99.90;;;;;;4153532;28;20065;-70
2022/05/08 02:06:11;;;;;;;4.40;3.08;;;28.50;99.90;;;;;;4153819;28;20053;-69
2022/05/08 02:08:19;;;;;;;3.97;2.75;;;28.60;99.90;;;;;;4155331;28;20057;-69
2022/05/08 02:10:28;;;;;;;4.57;3.10;;;28.70;99.50;;;;;;4154656;28;20042;-69
2022/05/08 02:12:33;;;;;;;4.40;2.65;;;28.90;99.40;;;;;;4152043;28;20046;-70
2022/05/08 02:14:38;;;;;;;6.30;2.67;;;29.00;99.20;;;;;;4156517;28;20101;-70
2022/05/08 02:16:44;;;;;;;4.78;2.40;;;29.00;99.10;;;;;;4170601;28;20041;-69
2022/05/08 02:18:49;;;;;;;4.25;2.95;;;29.10;99.10;;;;;;4154613;28;20410;-69
2022/05/08 02:20:55;;;;;;;4.18;2.80;;;29.20;99.00;;;;;;4156660;28;20401;-68
2022/05/08 02:23:03;;;;;;;3.45;2.60;;;29.30;98.80;;;;;;4156207;28;20042;-70
2022/05/08 02:25:09;;;;;;;3.25;2.45;;;29.30;98.70;;;;;;4169650;28;20051;-69
2022/05/08 02:27:19;;;;;;;5.53;3.05;;;29.30;98.80;;;;;;4152773;28;20050;-71
2022/05/08 02:29:24;;;;;;;4.13;2.72;;;29.30;98.90;;;;;;4170496;28;20042;-66
2022/05/08 02:31:29;;;;;;;2.83;2.38;;;29.40;98.70;;;;;;4153408;28;20728;-68
2022/05/08 02:33:36;;;;;;;4.53;2.85;;;29.50;98.70;;;;;;4153992;28;20069;-69
2022/05/08 02:35:46;;;;;;;3.50;2.53;;;29.50;98.50;;;;;;4167838;28;20472;-69
2022/05/08 02:37:53;;;;;;;4.20;2.55;;;29.60;98.50;;;;;;4152536;28;20042;-70
2022/05/08 02:40:00;;;;;;;4.70;2.70;;;29.70;98.30;;;;;;4155067;28;20050;-70
2022/05/08 02:42:07;;;;;;;4.32;3.00;;;29.70;98.10;;;;;;4168676;28;20106;-68
2022/05/08 02:44:11;;;;;;;3.75;2.70;;;29.70;97.80;;;;;;4170755;28;20132;-71
2022/05/08 02:46:18;;;;;;;6.57;2.65;;;29.80;97.80;;;;;;4152018;28;20800;-70
2022/05/08 02:48:27;;;;;;;3.85;2.42;;;29.80;97.70;;;;;;4166039;28;20088;-69
2022/05/08 02:50:33;;;;;;;5.55;2.90;;;30.00;97.60;;;;;;4153605;28;20048;-70
2022/05/08 02:52:41;;;;;;;4.10;2.72;;;30.00;97.50;;;;;;4152815;28;20053;-70
2022/05/08 02:54:48;;;;;;;3.70;2.80;;;30.00;97.20;;;;;;4155184;28;20049;-69
2022/05/08 02:59:12;;;;;;;8.55;2.92;;;30.10;97.60;;;;;;4149565;28;20050;-71
2022/05/08 03:01:19;;;;;;;3.10;2.80;;;30.10;97.50;;;;;;4142877;28;20136;-71
2022/05/08 03:03:24;;;;;;;4.53;2.60;;;30.10;97.30;;;;;;4153966;28;20049;-68
2022/05/08 03:05:33;;;;;;;3.78;2.65;;;30.20;97.40;;;;;;4151146;28;20045;-69
2022/05/08 03:07:40;;;;;;;4.32;2.97;;;30.20;97.10;;;;;;4151126;28;20046;-69
2022/05/08 03:09:44;;;;;;;2.92;2.40;;;30.20;97.20;;;;;;4150739;28;20041;-68
2022/05/08 03:11:52;;;;;;;4.50;2.80;;;30.20;97.00;;;;;;4152418;28;20046;-70
2022/05/08 03:13:58;;;;;;;4.00;2.80;;;30.30;97.20;;;;;;4151247;28;20066;-69
2022/05/08 03:16:05;;;;;;;3.75;2.70;;;30.30;97.10;;;;;;4152184;28;20030;-70
2022/05/08 03:18:12;;;;;;;3.63;2.85;;;30.30;97.00;;;;;;4152457;28;20437;-69
2022/05/08 03:20:18;;;;;;;4.55;2.70;;;30.50;96.60;;;;;;4151537;28;20078;-70
2022/05/08 03:22:22;;;;;;;4.00;2.65;;;30.60;96.40;;;;;;4154064;28;20049;-70
2022/05/08 03:24:31;;;;;;;3.47;3.10;;;30.60;96.70;;;;;;4152363;28;20124;-70
2022/05/08 03:26:36;;;;;;;3.35;2.72;;;30.60;96.40;;;;;;4154254;28;20050;-70
2022/05/08 03:28:41;;;;;;;6.00;2.78;;;30.70;96.00;;;;;;4151279;28;20041;-71
2022/05/08 03:30:48;;;;;;;6.32;2.80;;;30.80;95.90;;;;;;4151580;28;20393;-70
2022/05/08 03:32:56;;;;;;;3.97;2.95;;;30.90;95.80;;;;;;4153486;28;20132;-71
2022/05/08 03:35:01;;;;;;;4.63;2.40;;;31.00;95.80;;;;;;4153510;28;20045;-70
2022/05/08 03:37:10;;;;;;;4.18;2.97;;;30.90;96.00;;;;;;4152321;28;20042;-70
2022/05/08 03:39:15;;;;;;;3.78;2.70;;;31.00;95.90;;;;;;4152908;28;20069;-69
2022/05/08 03:41:19;;;;;;;5.20;2.90;;;31.20;95.70;;;;;;4152537;28;20038;-70
2022/05/08 03:43:27;;;;;;;3.20;2.58;;;31.10;94.90;;;;;;4151429;28;20077;-70
2022/05/08 03:45:33;;;;;;;3.78;2.67;;;31.00;95.40;;;;;;4153498;28;20041;-70
2022/05/08 03:47:38;;;;;;;3.50;2.90;;;30.90;95.50;;;;;;4151953;28;20050;-69
2022/05/08 03:49:46;;;;;;;3.60;2.78;;;30.90;95.50;;;;;;4153678;28;20052;-70
2022/05/08 03:51:53;;;;;;;3.05;2.65;;;30.90;95.40;;;;;;4167561;28;20091;-70
2022/05/08 03:53:58;;;;;;;3.33;2.80;;;31.00;95.40;;;;;;4153030;28;20046;-71
2022/05/08 03:56:04;;;;;;;4.15;3.00;;;31.10;95.00;;;;;;4151017;28;20042;-69
2022/05/08 03:58:17;;;;;;;3.13;2.80;;;31.20;94.90;;;;;;4153271;28;20181;-70
2022/05/08 04:00:22;;;;;;;3.65;2.72;;;31.30;94.90;;;;;;4152610;28;20061;-70
2022/05/08 04:02:28;;;;;;;4.10;3.20;;;31.30;94.90;;;;;;4152789;28;20038;-70
2022/05/08 04:04:36;;;;;;;6.55;3.53;;;31.30;95.00;;;;;;4151730;28;20058;-70
2022/05/08 04:06:44;;;;;;;3.95;3.30;;;31.30;95.00;;;;;;4155098;28;20403;-71
2022/05/08 04:08:53;;;;;;;5.30;3.88;;;31.30;95.10;;;;;;4154583;28;20046;-71
2022/05/08 04:10:59;;;;;;;5.03;3.20;;;31.30;94.90;;;;;;4167153;28;20048;-70
2022/05/08 04:13:04;;;;;;;4.55;3.38;;;31.40;94.90;;;;;;4167726;28;20041;-70
2022/05/08 04:16:15;;;;;;;5.57;3.95;;;31.50;94.80;;;;;;4153928;28;20073;-71
2022/05/08 04:17:38;;;;;;;4.68;3.63;;;31.50;94.10;;;;;;4152035;28;20077;-70
2022/05/08 04:19:43;;;;;;;4.40;3.63;;;31.20;94.80;;;;;;4155359;28;20073;-69
2022/05/08 04:21:49;;;;;;;4.20;3.80;;;31.40;94.90;;;;;;4154519;28;20054;-69
2022/05/08 04:26:12;;;;;;;4.32;3.80;;;31.60;94.70;;;;;;4154094;28;20042;-70
2022/05/08 04:28:19;;;;;;;4.80;3.88;;;31.70;94.70;;;;;;4152842;28;20505;-68
2022/05/08 04:30:25;;;;;;;4.45;3.50;;;31.80;94.60;;;;;;4151275;28;20104;-67
2022/05/08 04:32:29;;;;;;;4.90;3.50;;;31.80;94.60;;;;;;4153918;28;20067;-71
2022/05/08 04:34:36;;;;;;;5.60;4.05;;;31.90;94.50;;;;;;4153632;28;20046;-70
2022/05/08 04:36:43;;;;;;;6.07;4.00;;;32.00;94.30;;;;;;4133570;28;20363;-70
2022/05/08 04:38:48;;;;;;;5.70;4.55;;;32.00;94.40;;;;;;4150756;28;20045;-71
2022/05/08 04:40:54;;;;;;;5.90;4.22;;;32.10;94.20;;;;;;4152218;28;20046;-70
2022/05/08 04:43:01;;;;;;;7.25;5.10;;;32.20;94.20;;;;;;4152776;28;20046;-69
2022/05/08 04:45:06;;;;;;;7.75;4.35;;;32.20;94.10;;;;;;4166809;28;20080;-70
2022/05/08 04:47:13;;;;;;;7.28;5.07;;;32.30;94.10;;;;;;4169112;28;20140;-70
2022/05/08 04:49:19;;;;;;;5.70;4.72;;;32.30;94.00;;;;;;4165494;28;20069;-70
2022/05/08 04:51:24;;;;;;;7.25;5.00;;;32.40;94.00;;;;;;4153720;28;20042;-70
2022/05/08 04:53:31;;;;;;;6.10;5.32;;;32.40;94.00;;;;;;4152965;28;20101;-70
2022/05/08 04:55:37;;;;;;;8.80;5.72;;;32.30;93.90;;;;;;4153994;28;20133;-70
2022/05/08 04:57:41;;;;;;;7.63;5.70;;;32.30;93.90;;;;;;4151684;28;20050;-70
2022/05/08 04:59:48;;;;;;;6.68;5.97;;;32.40;93.80;;;;;;4153034;28;20050;-70
2022/05/08 05:01:55;;;;;;;7.40;6.47;;;32.50;93.70;;;;;;4155476;28;20725;-69
2022/05/08 05:04:00;;;;;;;9.23;6.72;;;32.50;93.80;;;;;;4155088;28;20596;-70
2022/05/08 05:06:05;;;;;;;10.00;7.47;;;32.40;93.70;;;;;;4153499;28;20117;-71
2022/05/08 05:08:12;;;;;;;9.65;7.63;;;32.40;93.90;;;;;;4155986;28;20060;-70
2022/05/08 05:10:19;;;;;;;10.48;8.00;;;32.30;93.70;;;;;;4151946;28;20082;-69
2022/05/08 05:12:24;;;;;;;10.50;8.00;;;32.30;93.80;;;;;;4156191;28;20038;-69
2022/05/08 05:14:34;;;;;;;11.88;8.10;;;32.30;93.70;;;;;;4155762;28;20049;-69
2022/05/08 05:16:41;;;;;;;11.20;8.00;;;32.30;93.70;;;;;;4153696;28;20061;-69
2022/05/08 05:18:46;;;;;;;11.27;8.68;;;32.40;93.70;;;;;;4155881;28;20050;-70
2022/05/08 05:20:50;;;;;;;11.48;8.57;;;32.40;93.80;;;;;;4154755;28;20057;-70
2022/05/08 05:23:03;;;;;;;9.77;8.00;;;32.30;93.70;;;;;;4168639;28;20037;-70
2022/05/08 05:25:09;;;;;;;9.23;7.82;;;32.40;93.70;;;;;;4155202;28;20056;-70
2022/05/08 05:27:16;;;;;;;10.10;7.22;;;32.30;93.50;;;;;;4119905;28;20050;-69
2022/05/08 05:29:22;;;;;;;11.10;7.30;;;32.40;93.50;;;;;;4154791;28;20054;-70
2022/05/08 05:31:28;;;;;;;10.13;7.82;;;32.40;93.40;;;;;;4168874;28;20108;-70
2022/05/08 05:33:36;;;;;;;9.82;8.00;;;32.30;93.40;;;;;;4156092;28;20065;-69
2022/05/08 05:35:43;;;;;;;8.15;7.35;;;32.40;93.40;;;;;;4154747;28;20094;-70
2022/05/08 05:37:47;;;;;;;10.77;7.82;;;32.50;93.40;;;;;;4153288;28;20030;-70
2022/05/08 05:39:54;;;;;;;10.23;7.18;;;32.50;93.20;;;;;;4152072;28;20049;-70
2022/05/08 05:41:59;;;;;;;12.43;7.50;;;32.60;93.40;;;;;;4133998;28;20129;-70
2022/05/08 05:44:04;;;;;;;10.63;6.50;;;32.60;93.30;;;;;;4152105;28;20045;-70
2022/05/08 05:48:29;;;;;;;10.02;8.35;;;32.80;93.00;;;;;;4153754;28;20053;-70
2022/05/08 05:50:34;;;;;;;8.02;7.22;;;33.00;92.70;;;;;;4154678;28;20049;-70
2022/05/08 05:52:41;;;;;;;9.02;7.55;;;33.20;92.50;;;;;;4154770;28;20052;-70
2022/05/08 05:54:49;;;;;;;9.15;6.88;;;33.20;92.40;;;;;;4153932;28;20790;-70
2022/05/08 05:56:56;;;;;;;8.40;6.75;;;33.30;92.20;;;;;;4155372;28;20038;-70
2022/05/08 05:59:02;;;;;;;8.45;6.35;;;33.20;91.90;;;;;;4153247;28;20049;-70
2022/05/08 06:01:30;;;;;;;8.82;6.80;;;33.10;92.20;;;;;;4150221;28;20030;-70
2022/05/08 06:03:34;;;;;;;8.93;7.00;;;33.30;92.10;;;;;;4154491;28;20045;-70
2022/05/08 06:05:41;;;;;;;10.25;6.70;;;33.40;92.10;;;;;;4152255;28;20483;-70
2022/05/08 06:07:48;;;;;;;9.88;6.68;;;33.60;92.00;;;;;;4154333;28;20048;-70
2022/05/08 06:09:52;;;;;;;8.40;6.82;;;33.60;91.90;;;;;;4154408;28;20081;-70
2022/05/08 06:11:57;;;;;;;6.93;6.22;;;33.70;91.80;;;;;;4154405;28;20054;-70
2022/05/08 06:14:06;;;;;;;6.95;6.25;;;33.90;91.60;;;;;;4153788;28;20050;-70
2022/05/08 06:16:11;;;;;;;7.15;6.45;;;33.90;91.60;;;;;;4153965;28;20077;-71
2022/05/08 06:18:18;;;;;;;8.40;7.00;;;33.70;91.60;;;;;;4146335;28;20038;-69
2022/05/08 06:20:24;;;;;;;8.30;6.85;;;33.60;91.40;;;;;;4152723;28;20098;-69
2022/05/08 06:22:29;;;;;;;9.57;6.72;;;33.50;91.30;;;;;;4153620;28;20076;-68
2022/05/08 06:24:38;;;;;;;8.75;6.85;;;33.60;91.30;;;;;;4152903;28;20126;-69
2022/05/08 06:26:42;;;;;;;9.35;6.78;;;33.60;91.20;;;;;;4152409;28;20069;-69
2022/05/08 06:28:48;;;;;;;8.88;7.15;;;33.60;91.00;;;;;;4153610;28;20489;-68
2022/05/08 06:30:57;;;;;;;10.77;6.72;;;33.50;91.20;;;;;;4151623;28;20366;-69
2022/05/08 06:33:03;;;;;;;7.55;6.78;;;33.50;91.50;;;;;;4154542;28;20109;-68
2022/05/08 06:35:12;;;;;;;7.90;6.50;;;33.50;91.10;;;;;;4165629;28;20140;-67
2022/05/08 06:37:17;;;;;;;8.23;6.30;;;33.60;91.10;;;;;;4168051;28;20124;-69
2022/05/08 06:39:22;;;;;;;11.55;7.70;;;33.70;91.20;;;;;;4135754;28;20113;-69
2022/05/08 06:41:27;;;;;;;8.73;6.60;;;33.80;91.00;;;;;;4153235;28;20042;-69
2022/05/08 06:43:33;;;;;;;7.75;6.88;;;33.80;91.00;;;;;;4152755;28;20050;-69
2022/05/08 06:45:38;;;;;;;8.02;7.15;;;33.90;91.00;;;;;;4149777;28;20050;-69
2022/05/08 06:47:43;;;;;;;8.38;6.90;;;34.00;90.60;;;;;;4151953;28;20053;-69
2022/05/08 06:49:49;;;;;;;9.05;7.00;;;34.20;90.60;;;;;;4150054;28;20053;-68
2022/05/08 06:51:54;;;;;;;8.77;7.28;;;34.10;90.70;;;;;;4152066;28;20046;-69
2022/05/08 06:53:58;;;;;;;9.63;7.38;;;34.20;90.80;;;;;;4168513;28;20086;-68
2022/05/08 06:56:04;;;;;;;10.32;7.25;;;34.20;90.70;;;;;;4153231;28;20042;-69
2022/05/08 06:58:10;;;;;;;9.07;7.25;;;34.20;90.60;;;;;;4147622;28;20106;-69
2022/05/08 07:02:41;;;;;;;9.80;8.25;;;34.20;90.60;;;;;;4155907;28;20068;-69
2022/05/08 07:04:49;;;;;;;10.40;7.20;;;34.00;90.50;;;;;;4170315;28;20042;-69
2022/05/08 07:06:54;;;;;;;9.63;7.65;;;33.90;91.00;;;;;;4156304;28;20049;-68
2022/05/08 07:09:01;;;;;;;9.35;7.35;;;33.70;91.10;;;;;;4157042;28;20104;-69
2022/05/08 07:11:07;;;;;;;10.45;8.25;;;33.80;91.10;;;;;;4155375;28;20038;-70
2022/05/08 07:13:12;;;;;;;13.02;8.60;;;33.90;90.90;;;;;;4155073;28;20048;-68
2022/05/08 07:15:20;;;;;;;11.00;7.77;;;33.90;90.80;;;;;;4156807;28;20081;-70
2022/05/08 07:17:47;;;;;;;11.52;8.00;;;34.10;90.60;;;;;;4155816;28;20045;-68
2022/05/08 07:19:52;;;;;;;8.65;7.45;;;34.20;90.60;;;;;;4171163;28;20080;-70
2022/05/08 07:21:59;;;;;;;8.82;7.18;;;34.30;90.40;;;;;;4154581;28;20050;-69
2022/05/08 07:24:08;;;;;;;10.18;7.97;;;34.40;90.00;;;;;;4168044;28;20048;-69
2022/05/08 07:26:13;;;;;;;11.68;7.90;;;34.40;88.70;;;;;;4154251;28;20090;-68
2022/05/08 07:28:19;;;;;;;9.20;7.07;;;34.30;89.70;;;;;;4154561;28;20054;-69
2022/05/08 07:30:29;;;;;;;9.30;6.50;;;34.40;89.10;;;;;;4170237;28;20435;-67
2022/05/08 07:32:37;;;;;;;8.05;6.70;;;34.50;89.50;;;;;;4153962;28;20580;-69
2022/05/08 07:37:03;;;;;;;11.80;7.30;;;34.30;90.10;;;;;;4170344;28;20038;-69
2022/05/08 07:39:08;;;;;;;13.50;7.60;;;34.00;90.50;;;;;;4155956;28;20129;-69
2022/05/08 07:41:16;;;;;;;10.80;7.97;;;33.80;91.00;;;;;;4168586;28;20146;-69
2022/05/08 07:43:23;;;;;;;14.50;8.27;;;33.70;91.20;;;;;;4155023;28;20056;-68
2022/05/08 07:45:29;;;;;;;13.82;8.77;;;33.80;91.00;;;;;;4154274;28;20165;-68
2022/05/08 07:47:35;;;;;;;10.73;7.60;;;33.90;91.00;;;;;;4153840;28;20058;-69
2022/05/08 07:49:43;;;;;;;11.00;7.10;;;33.90;90.90;;;;;;4155273;28;20496;-69
2022/05/08 07:51:47;;;;;;;8.05;6.22;;;34.00;90.80;;;;;;4169709;28;20049;-69
2022/05/08 07:53:54;;;;;;;6.88;5.80;;;34.00;90.60;;;;;;4153480;28;20038;-68
2022/05/08 07:56:02;;;;;;;7.60;6.13;;;34.00;90.70;;;;;;4154909;28;20572;-69
2022/05/08 07:58:09;;;;;;;7.45;6.07;;;34.10;90.60;;;;;;4155381;28;20057;-68
2022/05/08 08:00:15;;;;;;;7.65;6.50;;;34.10;90.50;;;;;;4156025;28;20077;-69
2022/05/08 08:02:22;;;;;;;8.93;6.32;;;34.10;90.30;;;;;;4156074;28;20054;-69
2022/05/08 08:04:27;;;;;;;7.40;6.45;;;34.20;90.10;;;;;;4155980;28;20072;-67
2022/05/08 08:06:34;;;;;;;9.63;7.15;;;34.20;90.30;;;;;;4119860;28;20050;-67
2022/05/08 08:08:41;;;;;;;13.63;8.10;;;34.30;90.00;;;;;;4154656;28;20136;-69
2022/05/08 08:10:46;;;;;;;9.40;7.10;;;34.30;90.50;;;;;;4153974;28;20042;-69
2022/05/08 08:12:54;;;;;;;9.70;7.55;;;34.30;90.30;;;;;;4135078;28;20038;-68
2022/05/08 08:15:05;;;;;;;8.40;7.30;;;34.20;90.20;;;;;;4171149;28;20052;-68
2022/05/08 08:17:10;;;;;;;8.48;7.50;;;34.20;90.10;;;;;;4155711;28;20063;-68
2022/05/08 08:19:15;;;;;;;8.93;7.20;;;34.30;89.90;;;;;;4154344;28;20041;-68
2022/05/08 08:21:23;;;;;;;9.18;7.25;;;34.40;89.30;;;;;;4153170;28;20042;-68
2022/05/08 08:23:29;;;;;;;8.40;7.18;;;34.40;88.60;;;;;;4153458;28;20073;-69
2022/05/08 08:25:35;;;;;;;7.40;6.57;;;34.40;88.90;;;;;;4152824;28;20057;-69
2022/05/08 08:27:42;;;;;;;7.50;6.70;;;34.40;89.30;;;;;;4154495;28;20128;-67
2022/05/08 08:29:47;;;;;;;8.65;6.50;;;34.40;89.40;;;;;;4154470;28;20050;-68
2022/05/08 08:32:00;;;;;;;8.73;6.22;;;34.40;89.40;;;;;;4154581;28;20061;-67
2022/05/08 08:34:07;;;;;;;8.65;6.43;;;34.40;89.50;;;;;;4154586;28;20046;-68
2022/05/08 08:36:12;;;;;;;8.05;6.30;;;34.30;89.40;;;;;;4154213;28;20053;-69
2022/05/08 08:38:19;;;;;;;7.53;6.28;;;34.40;89.60;;;;;;4150701;28;20085;-68
2022/05/08 08:40:26;;;;;;;6.95;6.10;;;34.20;89.80;;;;;;4152796;28;20080;-69
2022/05/08 08:42:31;;;;;;;9.27;6.10;;;34.10;90.00;;;;;;4152337;28;20037;-68
2022/05/08 08:49:23;;;;;;;10.60;6.50;;;33.90;90.30;;;;;;4152559;28;20053;-69
2022/05/08 08:51:31;;;;;;;8.02;6.50;;;33.80;89.90;;;;;;4152103;28;20049;-69
2022/05/08 08:53:36;;;;;;;10.65;6.07;;;33.70;90.30;;;;;;4152095;28;20129;-70
2022/05/08 08:55:42;;;;;;;8.50;5.97;;;33.60;90.50;;;;;;4153496;28;20046;-68
2022/05/08 08:57:46;;;;;;;10.00;6.60;;;33.50;90.50;;;;;;4152510;28;20581;-71
2022/05/08 08:59:51;;;;;;;12.45;6.25;;;33.50;90.50;;;;;;4152709;28;20046;-68
2022/05/08 09:01:56;;;;;;;10.23;6.47;;;33.50;90.50;;;;;;4152524;28;20054;-69
2022/05/08 09:04:03;;;;;;;8.10;6.20;;;33.40;90.50;;;;;;4152022;28;20045;-69
2022/05/08 09:06:08;;;;;;;9.18;6.07;;;33.40;90.50;;;;;;4151732;28;20080;-70
2022/05/08 09:08:26;;;;;;;9.65;6.40;;;33.30;90.40;;;;;;4153345;28;20085;-69
2022/05/08 09:10:36;;;;;;;9.45;6.65;;;33.30;90.30;;;;;;4151949;28;20048;-70
2022/05/08 09:12:43;;;;;;;14.90;7.05;;;33.40;90.40;;;;;;4152694;28;20473;-68
2022/05/08 09:14:50;;;;;;;10.23;6.15;;;33.40;90.40;;;;;;4152485;28;20038;-69
2022/05/08 09:16:57;;;;;;;11.02;6.53;;;33.40;90.40;;;;;;4152989;28;20065;-70
2022/05/08 09:19:04;;;;;;;6.40;5.78;;;33.50;90.40;;;;;;4152091;28;20038;-69
2022/05/08 09:24:04;;;;;;;7.05;5.53;;;33.80;90.60;;;;;;4151917;28;20095;-70
2022/05/08 09:26:14;;;;;;;7.10;5.85;;;33.80;90.50;;;;;;4151427;28;20073;-70
2022/05/08 09:28:29;;;;;;;6.88;6.13;;;33.90;90.50;;;;;;4167234;28;20064;-69
2022/05/08 09:30:34;;;;;;;7.57;6.15;;;33.90;90.30;;;;;;4151618;28;20054;-69
2022/05/08 09:32:42;;;;;;;6.20;5.60;;;33.90;90.40;;;;;;4166629;28;20136;-69
2022/05/08 09:34:57;;;;;;;6.32;5.60;;;33.70;90.10;;;;;;4167497;28;20045;-69
2022/05/08 09:37:06;;;;;;;8.38;5.95;;;33.80;90.30;;;;;;4152651;28;20069;-68
2022/05/08 09:39:12;;;;;;;10.15;5.85;;;33.80;90.20;;;;;;4151933;28;20038;-67
2022/05/08 09:41:23;;;;;;;8.77;6.13;;;33.80;90.40;;;;;;4150589;28;20046;-68
2022/05/08 09:43:28;;;;;;;10.20;5.85;;;33.70;90.60;;;;;;4150994;28;20084;-69
2022/05/08 09:45:33;;;;;;;7.53;6.30;;;33.60;90.60;;;;;;4148869;28;20048;-69
2022/05/08 09:47:46;;;;;;;6.85;6.07;;;33.60;90.50;;;;;;4152573;28;20058;-68
2022/05/08 09:49:51;;;;;;;8.15;5.72;;;33.40;90.60;;;;;;4151773;28;20081;-69
2022/05/08 09:51:56;;;;;;;8.45;6.05;;;33.40;90.60;;;;;;4155848;28;20030;-69
2022/05/08 09:54:03;;;;;;;8.18;6.15;;;33.30;90.80;;;;;;4155049;28;20048;-68
2022/05/08 09:56:11;;;;;;;8.73;6.90;;;33.20;90.80;;;;;;4153090;28;20050;-69
2022/05/08 09:58:18;;;;;;;6.90;6.07;;;33.10;90.80;;;;;;4150026;28;20113;-70
2022/05/08 10:00:25;;;;;;;8.20;6.15;;;33.10;90.90;;;;;;4153064;28;20038;-70
2022/05/08 10:02:31;;;;;;;9.52;6.70;;;33.10;90.80;;;;;;4134222;28;20442;-69
2022/05/08 10:04:36;;;;;;;8.40;7.30;;;33.00;90.90;;;;;;4151631;28;20041;-69
2022/05/08 10:06:43;;;;;;;12.85;8.63;;;33.00;91.00;;;;;;4150625;28;20049;-67
2022/05/08 10:08:50;;;;;;;12.23;9.20;;;32.90;91.20;;;;;;4152127;28;20123;-71
2022/05/08 10:15:35;;;;;;;14.85;9.35;;;32.80;91.30;;;;;;4154265;28;20165;-70
2022/05/08 10:17:40;;;;;;;13.32;8.05;;;32.80;91.30;;;;;;4152808;28;20578;-68
2022/05/08 10:19:47;;;;;;;10.57;7.35;;;32.80;91.30;;;;;;4169057;28;20053;-69
2022/05/08 10:22:15;;;;;;;9.15;6.68;;;32.80;91.30;;;;;;4153643;28;20038;-69
2022/05/08 10:24:36;;;;;;;13.52;7.70;;;32.70;91.40;;;;;;4152702;28;20046;-70
2022/05/08 10:26:43;;;;;;;11.98;7.50;;;32.70;91.50;;;;;;4152534;28;20108;-70
2022/05/08 10:29:12;;;;;;;7.32;6.00;;;32.70;91.50;;;;;;4153228;28;20069;-69
2022/05/08 10:31:55;;;;;;;8.90;6.03;;;32.70;91.60;;;;;;4151595;28;20042;-70
2022/05/08 10:34:05;;;;;;;8.70;5.55;;;32.60;91.70;;;;;;4152869;28;20041;-69
2022/05/08 10:36:13;;;;;;;8.77;5.97;;;32.60;91.80;;;;;;4157100;28;20495;-69
2022/05/08 10:38:19;;;;;;;7.15;6.00;;;32.50;91.90;;;;;;4156986;28;20417;-71
2022/05/08 10:40:31;;;;;;;7.05;5.38;;;32.50;92.00;;;;;;4156621;28;20499;-70
2022/05/08 10:42:42;;;;;;;6.68;5.25;;;32.50;92.10;;;;;;4155336;28;20030;-70
2022/05/08 10:44:46;;;;;;;10.13;6.80;;;32.50;92.20;;;;;;4139539;28;20046;-70
2022/05/08 10:47:29;;;;;;;11.80;6.85;;;32.40;92.40;;;;;;4153088;28;20603;-70
2022/05/08 10:49:34;;;;;;;9.75;6.57;;;32.40;92.40;;;;;;4155421;28;20054;-70
2022/05/08 10:51:39;;;;;;;9.88;6.90;;;32.30;92.40;;;;;;4153275;28;20108;-70
2022/05/08 10:53:46;;;;;;;8.75;7.05;;;32.30;92.60;;;;;;4156747;28;20052;-69
2022/05/08 10:55:59;;;;;;;9.48;6.45;;;32.30;92.60;;;;;;4154416;28;20106;-70
2022/05/08 10:58:07;;;;;;;11.60;6.50;;;32.30;92.60;;;;;;4167825;28;20115;-70
2022/05/08 11:00:18;;;;;;;11.32;6.30;;;32.20;92.70;;;;;;4151755;28;20046;-69
2022/05/08 11:02:52;;;;;;;11.38;5.50;;;32.20;92.60;;;;;;4152480;28;20409;-70
2022/05/08 11:04:57;;;;;;;11.73;6.47;;;32.20;92.70;;;;;;4153790;28;20104;-69
2022/05/08 11:07:05;;;;;;;7.15;6.25;;;32.20;92.70;;;;;;4153900;28;20128;-69
2022/05/08 11:09:11;;;;;;;8.48;5.65;;;32.20;92.90;;;;;;4154457;28;20054;-69
2022/05/08 11:11:18;;;;;;;8.13;7.18;;;32.10;93.20;;;;;;4167664;28;20433;-70
2022/05/08 11:13:36;;;;;;;13.35;7.60;;;32.10;93.00;;;;;;4135407;28;20107;-69
2022/05/08 11:15:48;;;;;;;9.93;8.90;;;32.10;93.00;;;;;;4149691;28;20046;-70
2022/05/08 11:18:09;;;;;;;8.95;7.60;;;32.10;93.00;;;;;;4154689;28;20056;-70
2022/05/08 11:20:16;;;;;;;10.05;7.55;;;32.00;93.40;;;;;;4155571;28;20076;-69
2022/05/08 11:22:21;;;;;;;12.02;7.55;;;31.90;93.50;;;;;;4156566;28;20045;-69
2022/05/08 11:24:26;;;;;;;9.68;7.32;;;31.90;93.50;;;;;;4153902;28;20044;-69
2022/05/08 11:26:36;;;;;;;9.27;7.20;;;32.00;93.60;;;;;;4136043;28;20177;-70
2022/05/08 11:28:49;;;;;;;10.65;7.85;;;31.90;93.50;;;;;;4152497;28;20069;-70